sensor_id;sensor_type;location;lat;lon;timestamp;P1;durP1;ratioP1;P2;durP2;ratioP2
59310;SDS011;45078;51.654;21.250;2023-09-19T00:00:37;15.48;;;9.43;;
59310;SDS011;45078;51.654;21.250;2023-09-19T00:03:05;15.00;;;9.15;;
59310;SDS011;45078;51.654;21.250;2023-09-19T00:05:33;15.85;;;9.05;;
59310;SDS011;45078;51.654;21.250;2023-09-19T00:08:00;12.93;;;9.20;;
59310;SDS011;45078;51.654;21.250;2023-09-19T00:10:30;18.75;;;9.82;;
59310;SDS011;45078;51.654;21.250;2023-09-19T00:12:57;16.58;;;9.63;;
59310;SDS011;45078;51.654;21.250;2023-09-19T00:15:30;13.80;;;9.55;;
59310;SDS011;45078;51.654;21.250;2023-09-19T00:18:01;14.95;;;8.90;;
59310;SDS011;45078;51.654;21.250;2023-09-19T00:20:26;17.67;;;9.93;;
59310;SDS011;45078;51.654;21.250;2023-09-19T00:22:54;20.92;;;9.98;;
59310;SDS011;45078;51.654;21.250;2023-09-19T00:25:20;17.40;;;10.10;;
59310;SDS011;45078;51.654;21.250;2023-09-19T00:27:48;14.95;;;9.13;;
59310;SDS011;45078;51.654;21.250;2023-09-19T00:30:16;15.18;;;9.73;;
59310;SDS011;45078;51.654;21.250;2023-09-19T00:32:46;15.15;;;9.70;;
59310;SDS011;45078;51.654;21.250;2023-09-19T00:35:13;13.50;;;9.70;;
59310;SDS011;45078;51.654;21.250;2023-09-19T00:37:40;21.05;;;9.73;;
59310;SDS011;45078;51.654;21.250;2023-09-19T00:40:09;16.23;;;9.60;;
59310;SDS011;45078;51.654;21.250;2023-09-19T00:42:37;15.95;;;10.05;;
59310;SDS011;45078;51.654;21.250;2023-09-19T00:45:04;19.00;;;9.75;;
59310;SDS011;45078;51.654;21.250;2023-09-19T00:47:31;15.80;;;9.82;;
59310;SDS011;45078;51.654;21.250;2023-09-19T00:49:57;15.52;;;9.73;;
59310;SDS011;45078;51.654;21.250;2023-09-19T00:52:23;12.63;;;8.10;;
59310;SDS011;45078;51.654;21.250;2023-09-19T00:54:49;15.55;;;10.05;;
59310;SDS011;45078;51.654;21.250;2023-09-19T00:57:15;16.77;;;9.80;;
59310;SDS011;45078;51.654;21.250;2023-09-19T00:59:42;20.35;;;10.50;;
59310;SDS011;45078;51.654;21.250;2023-09-19T01:02:08;17.25;;;9.55;;
59310;SDS011;45078;51.654;21.250;2023-09-19T01:04:35;16.75;;;9.00;;
59310;SDS011;45078;51.654;21.250;2023-09-19T01:07:02;17.35;;;9.43;;
59310;SDS011;45078;51.654;21.250;2023-09-19T01:09:28;20.95;;;10.63;;
59310;SDS011;45078;51.654;21.250;2023-09-19T01:11:56;15.02;;;9.88;;
59310;SDS011;45078;51.654;21.250;2023-09-19T01:17:25;15.15;;;9.77;;
59310;SDS011;45078;51.654;21.250;2023-09-19T01:22:43;15.40;;;9.20;;
59310;SDS011;45078;51.654;21.250;2023-09-19T01:25:20;18.02;;;9.70;;
59310;SDS011;45078;51.654;21.250;2023-09-19T01:30:56;16.02;;;9.35;;
59310;SDS011;45078;51.654;21.250;2023-09-19T01:33:25;20.20;;;9.63;;
59310;SDS011;45078;51.654;21.250;2023-09-19T01:35:51;15.60;;;9.02;;
59310;SDS011;45078;51.654;21.250;2023-09-19T01:38:18;18.40;;;9.98;;
59310;SDS011;45078;51.654;21.250;2023-09-19T01:40:46;17.95;;;9.15;;
59310;SDS011;45078;51.654;21.250;2023-09-19T01:43:28;20.13;;;10.10;;
59310;SDS011;45078;51.654;21.250;2023-09-19T01:46:06;16.02;;;9.73;;
59310;SDS011;45078;51.654;21.250;2023-09-19T01:49:02;15.68;;;8.80;;
59310;SDS011;45078;51.654;21.250;2023-09-19T01:51:56;12.45;;;8.15;;
59310;SDS011;45078;51.654;21.250;2023-09-19T01:54:33;15.55;;;9.40;;
59310;SDS011;45078;51.654;21.250;2023-09-19T01:57:08;17.70;;;9.63;;
59310;SDS011;45078;51.654;21.250;2023-09-19T01:59:45;16.00;;;9.07;;
59310;SDS011;45078;51.654;21.250;2023-09-19T02:02:20;16.35;;;9.55;;
59310;SDS011;45078;51.654;21.250;2023-09-19T02:04:47;18.25;;;9.60;;
59310;SDS011;45078;51.654;21.250;2023-09-19T02:07:14;16.88;;;9.40;;
59310;SDS011;45078;51.654;21.250;2023-09-19T02:09:40;17.65;;;9.32;;
59310;SDS011;45078;51.654;21.250;2023-09-19T02:12:08;14.00;;;8.23;;
59310;SDS011;45078;51.654;21.250;2023-09-19T02:14:34;16.25;;;8.60;;
59310;SDS011;45078;51.654;21.250;2023-09-19T02:17:01;17.27;;;9.32;;
59310;SDS011;45078;51.654;21.250;2023-09-19T02:19:30;17.15;;;9.30;;
59310;SDS011;45078;51.654;21.250;2023-09-19T02:21:57;17.02;;;9.70;;
59310;SDS011;45078;51.654;21.250;2023-09-19T02:24:23;15.35;;;9.05;;
59310;SDS011;45078;51.654;21.250;2023-09-19T02:26:49;13.85;;;8.73;;
59310;SDS011;45078;51.654;21.250;2023-09-19T02:29:15;16.65;;;8.90;;
59310;SDS011;45078;51.654;21.250;2023-09-19T02:31:40;16.35;;;8.75;;
59310;SDS011;45078;51.654;21.250;2023-09-19T02:34:06;15.60;;;9.00;;
59310;SDS011;45078;51.654;21.250;2023-09-19T02:36:32;14.77;;;8.93;;
59310;SDS011;45078;51.654;21.250;2023-09-19T02:38:57;12.75;;;8.45;;
59310;SDS011;45078;51.654;21.250;2023-09-19T02:41:23;16.10;;;9.30;;
59310;SDS011;45078;51.654;21.250;2023-09-19T02:43:48;16.80;;;9.07;;
59310;SDS011;45078;51.654;21.250;2023-09-19T02:46:14;15.15;;;8.85;;
59310;SDS011;45078;51.654;21.250;2023-09-19T02:48:39;12.68;;;8.45;;
59310;SDS011;45078;51.654;21.250;2023-09-19T02:51:06;18.02;;;9.38;;
59310;SDS011;45078;51.654;21.250;2023-09-19T02:53:32;12.70;;;9.07;;
59310;SDS011;45078;51.654;21.250;2023-09-19T02:55:57;14.23;;;8.60;;
59310;SDS011;45078;51.654;21.250;2023-09-19T02:58:23;15.13;;;8.38;;
59310;SDS011;45078;51.654;21.250;2023-09-19T03:00:50;17.38;;;8.50;;
59310;SDS011;45078;51.654;21.250;2023-09-19T03:03:16;14.60;;;8.27;;
59310;SDS011;45078;51.654;21.250;2023-09-19T03:05:42;13.02;;;8.68;;
59310;SDS011;45078;51.654;21.250;2023-09-19T03:08:12;18.23;;;9.60;;
59310;SDS011;45078;51.654;21.250;2023-09-19T03:10:39;15.35;;;8.50;;
59310;SDS011;45078;51.654;21.250;2023-09-19T03:13:05;15.80;;;8.05;;
59310;SDS011;45078;51.654;21.250;2023-09-19T03:15:34;12.50;;;8.32;;
59310;SDS011;45078;51.654;21.250;2023-09-19T03:18:03;14.95;;;9.25;;
59310;SDS011;45078;51.654;21.250;2023-09-19T03:20:30;12.70;;;8.00;;
59310;SDS011;45078;51.654;21.250;2023-09-19T03:22:55;13.95;;;8.55;;
59310;SDS011;45078;51.654;21.250;2023-09-19T03:25:22;13.57;;;8.90;;
59310;SDS011;45078;51.654;21.250;2023-09-19T03:27:48;15.30;;;7.97;;
59310;SDS011;45078;51.654;21.250;2023-09-19T03:30:13;15.30;;;8.63;;
59310;SDS011;45078;51.654;21.250;2023-09-19T03:32:48;12.77;;;7.60;;
59310;SDS011;45078;51.654;21.250;2023-09-19T03:35:15;14.70;;;8.27;;
59310;SDS011;45078;51.654;21.250;2023-09-19T03:37:42;15.15;;;8.32;;
59310;SDS011;45078;51.654;21.250;2023-09-19T03:40:08;14.63;;;7.90;;
59310;SDS011;45078;51.654;21.250;2023-09-19T03:42:37;14.68;;;8.55;;
59310;SDS011;45078;51.654;21.250;2023-09-19T03:45:04;16.60;;;9.02;;
59310;SDS011;45078;51.654;21.250;2023-09-19T03:47:31;13.88;;;8.20;;
59310;SDS011;45078;51.654;21.250;2023-09-19T03:49:56;15.32;;;8.13;;
59310;SDS011;45078;51.654;21.250;2023-09-19T03:52:22;18.02;;;8.20;;
59310;SDS011;45078;51.654;21.250;2023-09-19T03:54:47;15.02;;;7.88;;
59310;SDS011;45078;51.654;21.250;2023-09-19T03:57:14;14.07;;;7.72;;
59310;SDS011;45078;51.654;21.250;2023-09-19T03:59:42;12.43;;;7.75;;
59310;SDS011;45078;51.654;21.250;2023-09-19T04:02:11;15.35;;;8.00;;
59310;SDS011;45078;51.654;21.250;2023-09-19T04:04:47;11.27;;;7.15;;
59310;SDS011;45078;51.654;21.250;2023-09-19T04:07:16;13.98;;;8.10;;
59310;SDS011;45078;51.654;21.250;2023-09-19T04:09:43;12.52;;;7.65;;
59310;SDS011;45078;51.654;21.250;2023-09-19T04:12:10;13.20;;;7.90;;
59310;SDS011;45078;51.654;21.250;2023-09-19T04:14:37;17.52;;;8.30;;
59310;SDS011;45078;51.654;21.250;2023-09-19T04:17:03;16.10;;;7.88;;
59310;SDS011;45078;51.654;21.250;2023-09-19T04:19:30;13.70;;;8.05;;
59310;SDS011;45078;51.654;21.250;2023-09-19T04:21:56;14.73;;;8.20;;
59310;SDS011;45078;51.654;21.250;2023-09-19T04:24:22;11.68;;;7.53;;
59310;SDS011;45078;51.654;21.250;2023-09-19T04:26:47;15.75;;;8.65;;
59310;SDS011;45078;51.654;21.250;2023-09-19T04:29:13;13.00;;;7.43;;
59310;SDS011;45078;51.654;21.250;2023-09-19T04:31:39;13.68;;;7.70;;
59310;SDS011;45078;51.654;21.250;2023-09-19T04:34:05;16.30;;;7.97;;
59310;SDS011;45078;51.654;21.250;2023-09-19T04:36:33;13.68;;;7.88;;
59310;SDS011;45078;51.654;21.250;2023-09-19T04:38:58;15.02;;;7.50;;
59310;SDS011;45078;51.654;21.250;2023-09-19T04:41:24;15.25;;;7.80;;
59310;SDS011;45078;51.654;21.250;2023-09-19T04:43:49;12.00;;;7.85;;
59310;SDS011;45078;51.654;21.250;2023-09-19T04:46:16;11.45;;;7.60;;
59310;SDS011;45078;51.654;21.250;2023-09-19T04:48:42;16.10;;;7.78;;
59310;SDS011;45078;51.654;21.250;2023-09-19T04:51:08;11.13;;;7.60;;
59310;SDS011;45078;51.654;21.250;2023-09-19T04:53:35;13.93;;;7.85;;
59310;SDS011;45078;51.654;21.250;2023-09-19T04:56:02;12.50;;;7.97;;
59310;SDS011;45078;51.654;21.250;2023-09-19T04:58:28;12.95;;;7.60;;
59310;SDS011;45078;51.654;21.250;2023-09-19T05:00:55;14.00;;;7.45;;
59310;SDS011;45078;51.654;21.250;2023-09-19T05:03:21;13.02;;;7.95;;
59310;SDS011;45078;51.654;21.250;2023-09-19T05:05:47;11.40;;;7.30;;
59310;SDS011;45078;51.654;21.250;2023-09-19T05:08:13;16.08;;;7.57;;
59310;SDS011;45078;51.654;21.250;2023-09-19T05:10:40;11.95;;;6.95;;
59310;SDS011;45078;51.654;21.250;2023-09-19T05:13:06;11.80;;;8.00;;
59310;SDS011;45078;51.654;21.250;2023-09-19T05:15:35;12.63;;;7.72;;
59310;SDS011;45078;51.654;21.250;2023-09-19T05:18:01;14.02;;;7.38;;
59310;SDS011;45078;51.654;21.250;2023-09-19T05:20:26;12.15;;;7.38;;
59310;SDS011;45078;51.654;21.250;2023-09-19T05:23:06;13.63;;;7.82;;
59310;SDS011;45078;51.654;21.250;2023-09-19T05:25:34;29.20;;;10.75;;
59310;SDS011;45078;51.654;21.250;2023-09-19T05:28:07;15.15;;;7.15;;
59310;SDS011;45078;51.654;21.250;2023-09-19T05:30:34;14.48;;;7.90;;
59310;SDS011;45078;51.654;21.250;2023-09-19T05:33:04;14.20;;;7.03;;
59310;SDS011;45078;51.654;21.250;2023-09-19T05:35:30;16.25;;;7.85;;
59310;SDS011;45078;51.654;21.250;2023-09-19T05:37:57;36.97;;;7.93;;
59310;SDS011;45078;51.654;21.250;2023-09-19T05:40:23;12.70;;;7.97;;
59310;SDS011;45078;51.654;21.250;2023-09-19T05:42:49;12.13;;;7.30;;
59310;SDS011;45078;51.654;21.250;2023-09-19T05:45:18;22.88;;;7.25;;
59310;SDS011;45078;51.654;21.250;2023-09-19T05:47:47;26.35;;;7.55;;
59310;SDS011;45078;51.654;21.250;2023-09-19T05:50:17;22.88;;;7.78;;
59310;SDS011;45078;51.654;21.250;2023-09-19T05:52:43;12.43;;;7.63;;
59310;SDS011;45078;51.654;21.250;2023-09-19T05:55:17;18.15;;;7.57;;
59310;SDS011;45078;51.654;21.250;2023-09-19T05:57:42;30.80;;;8.82;;
59310;SDS011;45078;51.654;21.250;2023-09-19T06:00:08;12.38;;;7.82;;
59310;SDS011;45078;51.654;21.250;2023-09-19T06:02:36;48.17;;;9.88;;
59310;SDS011;45078;51.654;21.250;2023-09-19T06:05:05;51.22;;;9.40;;
59310;SDS011;45078;51.654;21.250;2023-09-19T06:07:34;14.73;;;7.40;;
59310;SDS011;45078;51.654;21.250;2023-09-19T06:10:05;73.85;;;9.07;;
59310;SDS011;45078;51.654;21.250;2023-09-19T06:12:32;21.85;;;7.78;;
59310;SDS011;45078;51.654;21.250;2023-09-19T06:15:00;13.75;;;7.55;;
59310;SDS011;45078;51.654;21.250;2023-09-19T06:17:26;11.10;;;6.78;;
59310;SDS011;45078;51.654;21.250;2023-09-19T06:19:52;84.75;;;10.18;;
59310;SDS011;45078;51.654;21.250;2023-09-19T06:22:18;16.33;;;7.70;;
59310;SDS011;45078;51.654;21.250;2023-09-19T06:24:44;13.43;;;7.18;;
59310;SDS011;45078;51.654;21.250;2023-09-19T06:27:12;22.33;;;8.20;;
59310;SDS011;45078;51.654;21.250;2023-09-19T06:29:38;27.63;;;7.68;;
59310;SDS011;45078;51.654;21.250;2023-09-19T06:32:10;15.90;;;7.65;;
59310;SDS011;45078;51.654;21.250;2023-09-19T06:34:36;12.02;;;7.80;;
59310;SDS011;45078;51.654;21.250;2023-09-19T06:37:03;23.73;;;6.32;;
59310;SDS011;45078;51.654;21.250;2023-09-19T06:39:31;11.68;;;7.07;;
59310;SDS011;45078;51.654;21.250;2023-09-19T06:41:56;15.20;;;7.60;;
59310;SDS011;45078;51.654;21.250;2023-09-19T06:44:23;13.48;;;7.07;;
59310;SDS011;45078;51.654;21.250;2023-09-19T06:46:49;10.57;;;6.25;;
59310;SDS011;45078;51.654;21.250;2023-09-19T06:49:16;11.25;;;6.40;;
59310;SDS011;45078;51.654;21.250;2023-09-19T06:51:42;10.68;;;7.28;;
59310;SDS011;45078;51.654;21.250;2023-09-19T06:54:08;11.15;;;6.90;;
59310;SDS011;45078;51.654;21.250;2023-09-19T06:56:35;12.27;;;7.15;;
59310;SDS011;45078;51.654;21.250;2023-09-19T06:59:00;12.73;;;7.07;;
59310;SDS011;45078;51.654;21.250;2023-09-19T07:01:27;11.23;;;6.72;;
59310;SDS011;45078;51.654;21.250;2023-09-19T07:03:53;13.20;;;7.82;;
59310;SDS011;45078;51.654;21.250;2023-09-19T07:06:19;10.48;;;6.93;;
59310;SDS011;45078;51.654;21.250;2023-09-19T07:08:45;9.52;;;6.18;;
59310;SDS011;45078;51.654;21.250;2023-09-19T07:11:11;13.35;;;7.22;;
59310;SDS011;45078;51.654;21.250;2023-09-19T07:13:37;10.73;;;6.80;;
59310;SDS011;45078;51.654;21.250;2023-09-19T07:16:04;15.45;;;7.45;;
59310;SDS011;45078;51.654;21.250;2023-09-19T07:18:29;11.43;;;7.53;;
59310;SDS011;45078;51.654;21.250;2023-09-19T07:20:57;12.75;;;7.20;;
59310;SDS011;45078;51.654;21.250;2023-09-19T07:23:29;13.23;;;6.90;;
59310;SDS011;45078;51.654;21.250;2023-09-19T07:26:00;12.48;;;6.90;;
59310;SDS011;45078;51.654;21.250;2023-09-19T07:28:27;10.70;;;7.30;;
59310;SDS011;45078;51.654;21.250;2023-09-19T07:30:53;11.90;;;6.88;;
59310;SDS011;45078;51.654;21.250;2023-09-19T07:33:19;10.82;;;6.93;;
59310;SDS011;45078;51.654;21.250;2023-09-19T07:35:45;12.95;;;7.60;;
59310;SDS011;45078;51.654;21.250;2023-09-19T07:38:12;11.23;;;6.90;;
59310;SDS011;45078;51.654;21.250;2023-09-19T07:40:37;12.07;;;6.93;;
59310;SDS011;45078;51.654;21.250;2023-09-19T07:43:03;15.68;;;7.20;;
59310;SDS011;45078;51.654;21.250;2023-09-19T07:45:30;14.65;;;7.47;;
59310;SDS011;45078;51.654;21.250;2023-09-19T07:47:56;12.52;;;7.60;;
59310;SDS011;45078;51.654;21.250;2023-09-19T07:50:22;14.30;;;7.22;;
59310;SDS011;45078;51.654;21.250;2023-09-19T07:52:48;16.40;;;7.57;;
59310;SDS011;45078;51.654;21.250;2023-09-19T07:55:18;13.38;;;7.93;;
59310;SDS011;45078;51.654;21.250;2023-09-19T07:57:45;18.98;;;7.53;;
59310;SDS011;45078;51.654;21.250;2023-09-19T08:00:12;15.05;;;7.78;;
59310;SDS011;45078;51.654;21.250;2023-09-19T08:02:39;11.10;;;6.30;;
59310;SDS011;45078;51.654;21.250;2023-09-19T08:05:07;14.77;;;8.60;;
59310;SDS011;45078;51.654;21.250;2023-09-19T08:07:40;12.10;;;6.65;;
59310;SDS011;45078;51.654;21.250;2023-09-19T08:10:06;11.88;;;7.25;;
59310;SDS011;45078;51.654;21.250;2023-09-19T08:12:36;18.00;;;8.90;;
59310;SDS011;45078;51.654;21.250;2023-09-19T08:15:02;10.27;;;7.38;;
59310;SDS011;45078;51.654;21.250;2023-09-19T08:17:28;11.65;;;8.27;;
59310;SDS011;45078;51.654;21.250;2023-09-19T08:19:58;11.00;;;7.45;;
59310;SDS011;45078;51.654;21.250;2023-09-19T08:22:25;13.75;;;7.88;;
59310;SDS011;45078;51.654;21.250;2023-09-19T08:24:52;11.90;;;7.38;;
59310;SDS011;45078;51.654;21.250;2023-09-19T08:27:18;13.70;;;8.40;;
59310;SDS011;45078;51.654;21.250;2023-09-19T08:29:44;14.35;;;7.93;;
59310;SDS011;45078;51.654;21.250;2023-09-19T08:32:12;13.85;;;7.47;;
59310;SDS011;45078;51.654;21.250;2023-09-19T08:34:37;16.88;;;8.15;;
59310;SDS011;45078;51.654;21.250;2023-09-19T08:37:03;14.00;;;8.30;;
59310;SDS011;45078;51.654;21.250;2023-09-19T08:39:29;16.23;;;7.63;;
59310;SDS011;45078;51.654;21.250;2023-09-19T08:41:58;15.43;;;8.20;;
59310;SDS011;45078;51.654;21.250;2023-09-19T08:44:25;12.60;;;7.93;;
59310;SDS011;45078;51.654;21.250;2023-09-19T08:46:53;13.75;;;7.43;;
59310;SDS011;45078;51.654;21.250;2023-09-19T08:52:25;12.93;;;8.20;;
59310;SDS011;45078;51.654;21.250;2023-09-19T08:54:52;12.68;;;8.65;;
59310;SDS011;45078;51.654;21.250;2023-09-19T08:57:27;13.93;;;8.55;;
59310;SDS011;45078;51.654;21.250;2023-09-19T08:59:54;16.60;;;8.57;;
59310;SDS011;45078;51.654;21.250;2023-09-19T09:02:22;12.65;;;8.93;;
59310;SDS011;45078;51.654;21.250;2023-09-19T09:04:48;17.35;;;9.52;;
59310;SDS011;45078;51.654;21.250;2023-09-19T09:07:15;14.40;;;9.25;;
59310;SDS011;45078;51.654;21.250;2023-09-19T09:09:44;16.55;;;8.90;;
59310;SDS011;45078;51.654;21.250;2023-09-19T09:12:13;16.33;;;10.13;;
59310;SDS011;45078;51.654;21.250;2023-09-19T09:14:40;16.17;;;10.85;;
59310;SDS011;45078;51.654;21.250;2023-09-19T09:17:11;13.73;;;9.65;;
59310;SDS011;45078;51.654;21.250;2023-09-19T09:19:37;17.35;;;9.63;;
59310;SDS011;45078;51.654;21.250;2023-09-19T09:22:09;14.80;;;9.18;;
59310;SDS011;45078;51.654;21.250;2023-09-19T09:24:36;20.42;;;9.93;;
59310;SDS011;45078;51.654;21.250;2023-09-19T09:27:04;13.85;;;9.63;;
59310;SDS011;45078;51.654;21.250;2023-09-19T09:32:26;16.05;;;10.32;;
59310;SDS011;45078;51.654;21.250;2023-09-19T09:35:00;14.40;;;10.05;;
59310;SDS011;45078;51.654;21.250;2023-09-19T09:37:29;14.93;;;10.05;;
59310;SDS011;45078;51.654;21.250;2023-09-19T09:42:35;16.42;;;10.20;;
59310;SDS011;45078;51.654;21.250;2023-09-19T09:48:02;15.65;;;10.43;;
59310;SDS011;45078;51.654;21.250;2023-09-19T09:50:32;14.73;;;10.73;;
59310;SDS011;45078;51.654;21.250;2023-09-19T09:53:26;14.98;;;10.80;;
59310;SDS011;45078;51.654;21.250;2023-09-19T09:56:01;17.63;;;11.13;;
59310;SDS011;45078;51.654;21.250;2023-09-19T09:58:35;15.70;;;9.95;;
59310;SDS011;45078;51.654;21.250;2023-09-19T10:01:02;14.82;;;10.57;;
59310;SDS011;45078;51.654;21.250;2023-09-19T10:06:06;16.73;;;10.75;;
59310;SDS011;45078;51.654;21.250;2023-09-19T10:08:57;17.38;;;10.65;;
59310;SDS011;45078;51.654;21.250;2023-09-19T10:11:36;16.73;;;10.63;;
59310;SDS011;45078;51.654;21.250;2023-09-19T10:14:16;18.00;;;11.23;;
59310;SDS011;45078;51.654;21.250;2023-09-19T10:16:48;16.48;;;11.05;;
59310;SDS011;45078;51.654;21.250;2023-09-19T10:19:21;18.38;;;10.90;;
59310;SDS011;45078;51.654;21.250;2023-09-19T10:21:55;19.23;;;11.38;;
59310;SDS011;45078;51.654;21.250;2023-09-19T10:24:22;19.88;;;11.38;;
59310;SDS011;45078;51.654;21.250;2023-09-19T10:26:50;18.15;;;10.98;;
59310;SDS011;45078;51.654;21.250;2023-09-19T10:29:16;16.52;;;10.82;;
59310;SDS011;45078;51.654;21.250;2023-09-19T10:31:44;16.75;;;11.65;;
59310;SDS011;45078;51.654;21.250;2023-09-19T10:34:16;18.52;;;11.20;;
59310;SDS011;45078;51.654;21.250;2023-09-19T10:36:45;17.10;;;11.63;;
59310;SDS011;45078;51.654;21.250;2023-09-19T10:39:14;19.20;;;12.02;;
59310;SDS011;45078;51.654;21.250;2023-09-19T10:41:47;18.92;;;11.88;;
59310;SDS011;45078;51.654;21.250;2023-09-19T10:44:19;19.20;;;11.90;;
59310;SDS011;45078;51.654;21.250;2023-09-19T10:46:49;19.40;;;12.07;;
59310;SDS011;45078;51.654;21.250;2023-09-19T10:49:17;18.00;;;12.00;;
59310;SDS011;45078;51.654;21.250;2023-09-19T10:51:44;18.23;;;11.80;;
59310;SDS011;45078;51.654;21.250;2023-09-19T10:54:13;15.55;;;11.73;;
59310;SDS011;45078;51.654;21.250;2023-09-19T10:56:43;19.48;;;12.65;;
59310;SDS011;45078;51.654;21.250;2023-09-19T10:59:20;17.83;;;12.60;;
59310;SDS011;45078;51.654;21.250;2023-09-19T11:01:50;19.48;;;11.88;;
59310;SDS011;45078;51.654;21.250;2023-09-19T11:04:21;21.85;;;12.38;;
59310;SDS011;45078;51.654;21.250;2023-09-19T11:07:08;18.50;;;12.35;;
59310;SDS011;45078;51.654;21.250;2023-09-19T11:09:49;23.38;;;13.38;;
59310;SDS011;45078;51.654;21.250;2023-09-19T11:15:06;19.40;;;11.95;;
59310;SDS011;45078;51.654;21.250;2023-09-19T11:17:37;21.27;;;12.70;;
59310;SDS011;45078;51.654;21.250;2023-09-19T11:30:42;17.02;;;10.95;;
59310;SDS011;45078;51.654;21.250;2023-09-19T11:43:47;14.68;;;9.85;;
59310;SDS011;45078;51.654;21.250;2023-09-19T11:46:13;18.65;;;9.68;;
59310;SDS011;45078;51.654;21.250;2023-09-19T11:48:47;14.20;;;9.27;;
59310;SDS011;45078;51.654;21.250;2023-09-19T11:51:15;14.07;;;9.73;;
59310;SDS011;45078;51.654;21.250;2023-09-19T11:53:51;62.83;;;34.53;;
59310;SDS011;45078;51.654;21.250;2023-09-19T11:56:27;39.03;;;20.65;;
59310;SDS011;45078;51.654;21.250;2023-09-19T11:58:54;18.48;;;11.57;;
59310;SDS011;45078;51.654;21.250;2023-09-19T12:01:22;17.92;;;9.07;;
59310;SDS011;45078;51.654;21.250;2023-09-19T12:03:52;12.65;;;8.88;;
59310;SDS011;45078;51.654;21.250;2023-09-19T12:06:19;13.25;;;8.20;;
59310;SDS011;45078;51.654;21.250;2023-09-19T12:08:47;15.10;;;8.95;;
59310;SDS011;45078;51.654;21.250;2023-09-19T12:11:14;14.18;;;9.00;;
59310;SDS011;45078;51.654;21.250;2023-09-19T12:13:41;14.27;;;8.75;;
59310;SDS011;45078;51.654;21.250;2023-09-19T12:16:20;15.93;;;9.40;;
59310;SDS011;45078;51.654;21.250;2023-09-19T12:18:47;13.18;;;8.38;;
59310;SDS011;45078;51.654;21.250;2023-09-19T12:21:31;14.35;;;9.50;;
59310;SDS011;45078;51.654;21.250;2023-09-19T12:24:13;17.83;;;8.82;;
59310;SDS011;45078;51.654;21.250;2023-09-19T12:26:42;13.75;;;9.20;;
59310;SDS011;45078;51.654;21.250;2023-09-19T12:29:13;15.40;;;9.75;;
59310;SDS011;45078;51.654;21.250;2023-09-19T12:31:55;18.00;;;10.68;;
59310;SDS011;45078;51.654;21.250;2023-09-19T12:34:29;14.85;;;10.25;;
59310;SDS011;45078;51.654;21.250;2023-09-19T12:37:12;15.63;;;10.38;;
59310;SDS011;45078;51.654;21.250;2023-09-19T12:39:51;18.42;;;9.82;;
59310;SDS011;45078;51.654;21.250;2023-09-19T12:42:23;18.90;;;11.02;;
59310;SDS011;45078;51.654;21.250;2023-09-19T12:44:53;17.77;;;11.95;;
59310;SDS011;45078;51.654;21.250;2023-09-19T12:47:22;17.77;;;11.25;;
59310;SDS011;45078;51.654;21.250;2023-09-19T12:50:05;17.67;;;11.25;;
59310;SDS011;45078;51.654;21.250;2023-09-19T12:52:38;19.05;;;11.27;;
59310;SDS011;45078;51.654;21.250;2023-09-19T12:55:19;18.67;;;10.70;;
59310;SDS011;45078;51.654;21.250;2023-09-19T13:00:35;18.23;;;10.18;;
59310;SDS011;45078;51.654;21.250;2023-09-19T13:06:03;12.43;;;9.00;;
59310;SDS011;45078;51.654;21.250;2023-09-19T13:08:33;12.85;;;9.07;;
59310;SDS011;45078;51.654;21.250;2023-09-19T13:13:49;15.25;;;8.82;;
59310;SDS011;45078;51.654;21.250;2023-09-19T13:16:52;14.82;;;9.05;;
59310;SDS011;45078;51.654;21.250;2023-09-19T13:19:34;17.92;;;9.30;;
59310;SDS011;45078;51.654;21.250;2023-09-19T13:22:00;13.73;;;8.68;;
59310;SDS011;45078;51.654;21.250;2023-09-19T13:24:27;13.18;;;8.60;;
59310;SDS011;45078;51.654;21.250;2023-09-19T13:26:55;14.98;;;8.70;;
59310;SDS011;45078;51.654;21.250;2023-09-19T13:29:21;14.15;;;8.63;;
59310;SDS011;45078;51.654;21.250;2023-09-19T13:31:48;15.23;;;8.65;;
59310;SDS011;45078;51.654;21.250;2023-09-19T13:34:14;14.02;;;8.82;;
59310;SDS011;45078;51.654;21.250;2023-09-19T13:36:42;12.40;;;8.48;;
59310;SDS011;45078;51.654;21.250;2023-09-19T13:39:08;14.25;;;8.85;;
59310;SDS011;45078;51.654;21.250;2023-09-19T13:41:34;11.93;;;7.50;;
59310;SDS011;45078;51.654;21.250;2023-09-19T13:44:04;12.68;;;7.97;;
59310;SDS011;45078;51.654;21.250;2023-09-19T13:46:30;14.50;;;8.10;;
59310;SDS011;45078;51.654;21.250;2023-09-19T13:48:58;14.30;;;8.13;;
59310;SDS011;45078;51.654;21.250;2023-09-19T13:51:25;11.57;;;7.45;;
59310;SDS011;45078;51.654;21.250;2023-09-19T13:53:51;13.02;;;7.50;;
59310;SDS011;45078;51.654;21.250;2023-09-19T13:56:17;15.07;;;7.13;;
59310;SDS011;45078;51.654;21.250;2023-09-19T13:58:43;12.18;;;6.75;;
59310;SDS011;45078;51.654;21.250;2023-09-19T14:01:09;8.98;;;6.30;;
59310;SDS011;45078;51.654;21.250;2023-09-19T14:03:37;14.20;;;5.88;;
59310;SDS011;45078;51.654;21.250;2023-09-19T14:06:04;12.07;;;6.78;;
59310;SDS011;45078;51.654;21.250;2023-09-19T14:08:30;8.57;;;5.88;;
59310;SDS011;45078;51.654;21.250;2023-09-19T14:10:58;8.55;;;5.82;;
59310;SDS011;45078;51.654;21.250;2023-09-19T14:13:24;10.13;;;6.07;;
59310;SDS011;45078;51.654;21.250;2023-09-19T14:15:50;9.32;;;5.70;;
59310;SDS011;45078;51.654;21.250;2023-09-19T14:18:16;8.43;;;5.15;;
59310;SDS011;45078;51.654;21.250;2023-09-19T14:20:43;9.00;;;5.40;;
59310;SDS011;45078;51.654;21.250;2023-09-19T14:23:09;8.38;;;5.15;;
59310;SDS011;45078;51.654;21.250;2023-09-19T14:25:35;8.05;;;5.68;;
59310;SDS011;45078;51.654;21.250;2023-09-19T14:28:01;12.07;;;6.15;;
59310;SDS011;45078;51.654;21.250;2023-09-19T14:30:27;13.00;;;5.80;;
59310;SDS011;45078;51.654;21.250;2023-09-19T14:32:52;10.15;;;6.13;;
59310;SDS011;45078;51.654;21.250;2023-09-19T14:35:18;12.40;;;6.25;;
59310;SDS011;45078;51.654;21.250;2023-09-19T14:37:44;7.68;;;4.95;;
59310;SDS011;45078;51.654;21.250;2023-09-19T14:40:10;8.88;;;5.28;;
59310;SDS011;45078;51.654;21.250;2023-09-19T14:42:38;7.07;;;5.38;;
59310;SDS011;45078;51.654;21.250;2023-09-19T14:45:04;10.88;;;6.20;;
59310;SDS011;45078;51.654;21.250;2023-09-19T14:47:31;9.88;;;5.28;;
59310;SDS011;45078;51.654;21.250;2023-09-19T14:49:59;10.00;;;5.97;;
59310;SDS011;45078;51.654;21.250;2023-09-19T14:52:26;10.43;;;5.88;;
59310;SDS011;45078;51.654;21.250;2023-09-19T14:54:53;8.88;;;5.30;;
59310;SDS011;45078;51.654;21.250;2023-09-19T14:57:20;10.77;;;5.18;;
59310;SDS011;45078;51.654;21.250;2023-09-19T14:59:49;9.05;;;5.32;;
59310;SDS011;45078;51.654;21.250;2023-09-19T15:02:15;11.45;;;5.60;;
59310;SDS011;45078;51.654;21.250;2023-09-19T15:04:42;8.80;;;5.70;;
59310;SDS011;45078;51.654;21.250;2023-09-19T15:07:09;10.52;;;5.38;;
59310;SDS011;45078;51.654;21.250;2023-09-19T15:09:35;9.65;;;5.68;;
59310;SDS011;45078;51.654;21.250;2023-09-19T15:12:01;9.68;;;5.38;;
59310;SDS011;45078;51.654;21.250;2023-09-19T15:14:27;13.93;;;6.43;;
59310;SDS011;45078;51.654;21.250;2023-09-19T15:16:54;15.60;;;6.75;;
59310;SDS011;45078;51.654;21.250;2023-09-19T15:19:20;14.73;;;7.18;;
59310;SDS011;45078;51.654;21.250;2023-09-19T15:21:47;10.60;;;6.30;;
59310;SDS011;45078;51.654;21.250;2023-09-19T15:24:13;11.45;;;6.38;;